Time;durP1;ratioP1;P1;durP2;ratioP2;P2;SDS_P1;SDS_P2;PMS_P1;PMS_P2;Temp;Humidity;BMP_temperature;BMP_pressure;BME280_temperature;BME280_humidity;BME280_pressure;Samples;Min_cycle;Max_cycle;Signal;HPM_P1;HPM_P2
2022/01/13 00:01:50;;;;;;;;;;;5.50;99.90;;;;;;5136045;27;19926;-60
2022/01/13 00:04:16;;;;;;;;;;;5.50;99.90;;;;;;5131480;27;20368;-56
2022/01/13 00:06:42;;;;;;;;;;;5.50;99.90;;;;;;5129082;27;19932;-59
2022/01/13 00:09:08;;;;;;;;;;;5.50;99.90;;;;;;5141577;27;20410;-68
2022/01/13 00:11:34;;;;;;;;;;;5.50;99.90;;;;;;5133920;27;19927;-64
2022/01/13 00:16:44;;;;;;;;;;;5.40;99.90;;;;;;5142174;27;19950;-61
2022/01/13 00:21:47;;;;;;;;;;;5.70;99.90;;;;;;5138031;27;19927;-66
2022/01/13 00:24:13;;;;;;;;;;;5.40;99.90;;;;;;5138090;27;19979;-56
2022/01/13 00:26:39;;;;;;;;;;;5.50;99.90;;;;;;5145901;27;19952;-63
2022/01/13 00:29:05;;;;;;;;;;;5.40;99.90;;;;;;5129387;27;19935;-65
2022/01/13 00:31:33;;;;;;;;;;;5.40;99.90;;;;;;5130120;27;19979;-56
2022/01/13 00:34:01;;;;;;;;;;;5.40;99.90;;;;;;5140279;27;20571;-56
2022/01/13 00:36:31;;;;;;;;;;;5.40;99.90;;;;;;5133894;27;19928;-57
2022/01/13 00:38:57;;;;;;;;;;;5.40;99.90;;;;;;5146742;27;19931;-56
2022/01/13 00:41:27;;;;;;;;;;;5.60;99.90;;;;;;5142066;27;19976;-56
2022/01/13 00:43:54;;;;;;;;;;;5.40;99.90;;;;;;5138487;27;20296;-57
2022/01/13 00:46:25;;;;;;;;;;;5.30;99.90;;;;;;5135067;27;20411;-56
2022/01/13 00:48:51;;;;;;;;;;;5.40;99.90;;;;;;5145895;27;19927;-58
2022/01/13 00:51:21;;;;;;;;;;;5.30;99.90;;;;;;5135361;27;19979;-56
2022/01/13 00:53:46;;;;;;;;;;;5.40;99.90;;;;;;5140045;27;20046;-56
2022/01/13 00:56:12;;;;;;;;;;;5.40;99.90;;;;;;5142248;27;20516;-57
2022/01/13 00:58:38;;;;;;;;;;;5.40;99.90;;;;;;5132243;27;20014;-57
2022/01/13 01:01:05;;;;;;;;;;;5.40;99.90;;;;;;5143829;27;19960;-56
2022/01/13 01:03:31;;;;;;;;;;;5.50;99.90;;;;;;5130991;27;19975;-56
2022/01/13 01:05:57;;;;;;;;;;;5.60;99.90;;;;;;5139169;27;20056;-56
2022/01/13 01:08:22;;;;;;;;;;;5.30;99.90;;;;;;5144254;27;19938;-56
2022/01/13 01:10:50;;;;;;;;;;;5.30;99.90;;;;;;5132199;27;19927;-56
2022/01/13 01:13:20;;;;;;;;;;;5.30;99.90;;;;;;5142764;27;20301;-56
2022/01/13 01:15:50;;;;;;;;;;;5.30;99.90;;;;;;5138451;27;20388;-56
2022/01/13 01:18:30;;;;;;;;;;;5.30;99.90;;;;;;5134489;27;19927;-56
2022/01/13 01:23:33;;;;;;;;;;;5.20;99.90;;;;;;5136020;27;19927;-56
2022/01/13 01:26:05;;;;;;;;;;;5.20;99.90;;;;;;5141483;27;19935;-57
2022/01/13 01:28:41;;;;;;;;;;;5.20;99.90;;;;;;5132693;27;19934;-56
2022/01/13 01:31:07;;;;;;;;;;;5.20;99.90;;;;;;5129079;27;20000;-56
2022/01/13 01:33:33;;;;;;;;;;;5.20;99.90;;;;;;5135075;27;20378;-55
2022/01/13 01:35:59;;;;;;;;;;;5.20;99.90;;;;;;5147386;27;19927;-55
2022/01/13 01:38:25;;;;;;;;;;;5.20;99.90;;;;;;5136516;27;20437;-56
2022/01/13 01:40:50;;;;;;;;;;;5.20;99.90;;;;;;5138011;27;19927;-56
2022/01/13 01:43:16;;;;;;;;;;;5.20;99.90;;;;;;5146716;27;20404;-55
2022/01/13 01:45:47;;;;;;;;;;;5.50;99.90;;;;;;5138948;27;20308;-56
2022/01/13 01:48:18;;;;;;;;;;;5.20;99.90;;;;;;5137662;27;20467;-57
2022/01/13 01:50:53;;;;;;;;;;;5.20;99.90;;;;;;5148198;27;19926;-55
2022/01/13 01:53:19;;;;;;;;;;;5.20;99.90;;;;;;5136569;27;20318;-56
2022/01/13 01:55:44;;;;;;;;;;;5.20;99.90;;;;;;5141351;27;19934;-56
2022/01/13 01:58:10;;;;;;;;;;;5.20;99.90;;;;;;5144260;27;19927;-56
2022/01/13 02:00:36;;;;;;;;;;;5.20;99.90;;;;;;5142109;27;19931;-56
2022/01/13 02:03:02;;;;;;;;;;;5.20;99.90;;;;;;5146744;27;19937;-56
2022/01/13 02:05:28;;;;;;;;;;;5.30;99.90;;;;;;5139846;27;19927;-55
2022/01/13 02:07:53;;;;;;;;;;;5.20;99.90;;;;;;5146299;27;19930;-56
2022/01/13 02:10:20;;;;;;;;;;;5.60;99.90;;;;;;5136875;27;20384;-56
2022/01/13 02:12:49;;;;;;;;;;;5.30;99.90;;;;;;5147371;27;19968;-57
2022/01/13 02:15:30;;;;;;;;;;;5.40;99.90;;;;;;5132226;27;20262;-59
2022/01/13 02:17:57;;;;;;;;;;;5.40;99.90;;;;;;5141445;27;20368;-67
2022/01/13 02:20:23;;;;;;;;;;;5.20;99.90;;;;;;5143577;27;20499;-60
2022/01/13 02:22:48;;;;;;;;;;;5.60;99.90;;;;;;5134126;27;19974;-60
2022/01/13 02:25:15;;;;;;;;;;;5.10;99.90;;;;;;5143026;27;20428;-64
2022/01/13 02:27:41;;;;;;;;;;;5.10;99.90;;;;;;5141772;27;19927;-62
2022/01/13 02:30:07;;;;;;;;;;;5.10;99.90;;;;;;5133471;27;19933;-62
2022/01/13 02:32:33;;;;;;;;;;;5.10;99.90;;;;;;5150475;27;19927;-65
2022/01/13 02:34:59;;;;;;;;;;;5.10;99.90;;;;;;5133831;27;19974;-61
2022/01/13 02:37:24;;;;;;;;;;;5.60;99.90;;;;;;5143603;27;20315;-69
2022/01/13 02:39:50;;;;;;;;;;;5.10;99.90;;;;;;5134697;27;19923;-60
2022/01/13 02:42:15;;;;;;;;;;;5.10;99.90;;;;;;5142536;27;20372;-65
2022/01/13 02:45:06;;;;;;;;;;;5.10;99.90;;;;;;5132726;27;20407;-64
2022/01/13 02:50:04;;;;;;;;;;;5.10;99.90;;;;;;5139925;27;20352;-55
2022/01/13 02:52:30;;;;;;;;;;;5.10;99.90;;;;;;5132570;27;19933;-63
2022/01/13 02:54:56;;;;;;;;;;;5.10;99.90;;;;;;5140058;27;19935;-56
2022/01/13 02:57:21;;;;;;;;;;;5.10;99.90;;;;;;5136443;27;20088;-61
2022/01/13 02:59:47;;;;;;;;;;;5.10;99.90;;;;;;5139001;27;20311;-63
2022/01/13 03:02:12;;;;;;;;;;;5.50;99.90;;;;;;5143517;27;19974;-59
2022/01/13 03:04:44;;;;;;;;;;;5.10;99.90;;;;;;5138986;27;19972;-65
2022/01/13 03:07:10;;;;;;;;;;;5.10;99.90;;;;;;5143585;27;19927;-68
2022/01/13 03:09:35;;;;;;;;;;;5.20;99.90;;;;;;5140517;27;19927;-65
2022/01/13 03:12:01;;;;;;;;;;;5.10;99.90;;;;;;5140498;27;20263;-66
2022/01/13 03:14:26;;;;;;;;;;;5.10;99.90;;;;;;5133182;27;19934;-60
2022/01/13 03:16:52;;;;;;;;;;;5.10;99.90;;;;;;5146486;27;19972;-67
2022/01/13 03:19:17;;;;;;;;;;;5.10;99.90;;;;;;5134918;27;19927;-67
2022/01/13 03:21:43;;;;;;;;;;;5.10;99.90;;;;;;5140407;27;20010;-62
2022/01/13 03:24:11;;;;;;;;;;;5.10;99.90;;;;;;5132609;27;19927;-62
2022/01/13 03:26:37;;;;;;;;;;;5.10;99.90;;;;;;5132222;27;19931;-61
2022/01/13 03:31:37;;;;;;;;;;;5.10;99.90;;;;;;5139953;27;19927;-57
2022/01/13 03:34:03;;;;;;;;;;;5.10;99.90;;;;;;5140165;27;19927;-59
2022/01/13 03:36:28;;;;;;;;;;;5.10;99.90;;;;;;5131979;27;19927;-58
2022/01/13 03:38:54;;;;;;;;;;;5.30;99.90;;;;;;5146028;27;20288;-65
2022/01/13 03:41:20;;;;;;;;;;;5.10;99.90;;;;;;5141596;27;19976;-64
2022/01/13 03:43:46;;;;;;;;;;;5.20;99.90;;;;;;5134333;27;19927;-64
2022/01/13 03:46:14;;;;;;;;;;;5.30;99.90;;;;;;5135059;27;19931;-57
2022/01/13 03:48:40;;;;;;;;;;;5.80;99.90;;;;;;5129286;27;19927;-56
2022/01/13 03:51:06;;;;;;;;;;;5.10;99.90;;;;;;5127222;27;19931;-60
2022/01/13 03:53:31;;;;;;;;;;;5.10;99.90;;;;;;5136371;27;20053;-56
2022/01/13 03:56:15;;;;;;;;;;;5.10;99.90;;;;;;5137864;27;20387;-58
2022/01/13 03:58:50;;;;;;;;;;;5.20;99.90;;;;;;5144141;27;19977;-65
2022/01/13 04:01:32;;;;;;;;;;;5.10;99.90;;;;;;5134229;27;19952;-60
2022/01/13 04:03:57;;;;;;;;;;;5.10;99.90;;;;;;5140234;27;19970;-61
2022/01/13 04:06:23;;;;;;;;;;;5.10;99.90;;;;;;5134653;27;19988;-60
2022/01/13 04:08:49;;;;;;;;;;;5.10;99.90;;;;;;5146002;27;19923;-64
2022/01/13 04:11:15;;;;;;;;;;;5.10;99.90;;;;;;5134325;27;20030;-58
2022/01/13 04:16:10;;;;;;;;;;;5.10;99.90;;;;;;5141101;27;19934;-56
2022/01/13 04:18:35;;;;;;;;;;;5.10;99.90;;;;;;5132385;27;19982;-62
2022/01/13 04:21:01;;;;;;;;;;;5.60;99.90;;;;;;5144927;27;20487;-61
2022/01/13 04:23:26;;;;;;;;;;;5.00;99.90;;;;;;5136108;27;19934;-60
2022/01/13 04:25:55;;;;;;;;;;;5.00;99.90;;;;;;5141042;27;19934;-56
2022/01/13 04:28:26;;;;;;;;;;;5.00;99.90;;;;;;5133890;27;19927;-57
2022/01/13 04:31:00;;;;;;;;;;;5.00;99.90;;;;;;5136663;27;20292;-58
2022/01/13 04:33:30;;;;;;;;;;;5.60;99.90;;;;;;5142142;27;19928;-61
2022/01/13 04:35:56;;;;;;;;;;;5.00;99.90;;;;;;5139314;27;19927;-63
2022/01/13 04:38:22;;;;;;;;;;;5.00;99.90;;;;;;5134407;27;19932;-62
2022/01/13 04:40:54;;;;;;;;;;;5.00;99.90;;;;;;5134641;27;19934;-57
2022/01/13 04:43:20;;;;;;;;;;;5.00;99.90;;;;;;5142859;27;20425;-62
2022/01/13 04:45:45;;;;;;;;;;;5.00;99.90;;;;;;5138302;27;19927;-65
2022/01/13 04:48:11;;;;;;;;;;;5.10;99.90;;;;;;5134983;27;20512;-56
2022/01/13 04:50:36;;;;;;;;;;;5.10;99.90;;;;;;5144204;27;19927;-56
2022/01/13 04:53:02;;;;;;;;;;;5.10;99.90;;;;;;5132498;27;19938;-56
2022/01/13 04:55:31;;;;;;;;;;;5.10;99.90;;;;;;5139718;27;20026;-57
2022/01/13 04:57:59;;;;;;;;;;;5.10;99.90;;;;;;5140196;27;19927;-68
2022/01/13 05:00:26;;;;;;;;;;;5.50;99.90;;;;;;5133809;27;19924;-58
2022/01/13 05:02:51;;;;;;;;;;;5.10;99.90;;;;;;5145164;27;20192;-60
2022/01/13 05:05:17;;;;;;;;;;;7.10;99.90;;;;;;5138201;27;20448;-59
2022/01/13 05:07:42;;;;;;;;;;;5.10;99.90;;;;;;5131042;27;19927;-56
2022/01/13 05:10:08;;;;;;;;;;;5.10;99.90;;;;;;5143162;27;19927;-57
2022/01/13 05:12:41;;;;;;;;;;;5.00;99.90;;;;;;5147646;27;20357;-64
2022/01/13 05:15:08;;;;;;;;;;;5.00;99.90;;;;;;5136214;27;19959;-61
2022/01/13 05:17:59;;;;;;;;;;;5.00;99.90;;;;;;5143954;27;19927;-58
2022/01/13 05:20:22;;;;;;;;;;;5.00;99.90;;;;;;5146406;27;19927;-65
2022/01/13 05:22:48;;;;;;;;;;;5.00;99.90;;;;;;5134083;27;19927;-56
2022/01/13 05:25:17;;;;;;;;;;;5.70;99.90;;;;;;5144735;27;19927;-66
2022/01/13 05:27:43;;;;;;;;;;;5.00;99.90;;;;;;5142580;27;19927;-56
2022/01/13 05:30:09;;;;;;;;;;;5.30;99.90;;;;;;5131359;27;19927;-63
2022/01/13 05:32:35;;;;;;;;;;;5.00;99.90;;;;;;5131331;27;20377;-65
2022/01/13 05:35:00;;;;;;;;;;;5.00;99.90;;;;;;5146787;27;19928;-63
2022/01/13 05:37:26;;;;;;;;;;;5.00;99.90;;;;;;5138347;27;19981;-67
2022/01/13 05:39:52;;;;;;;;;;;4.90;99.90;;;;;;5147200;27;20319;-56
2022/01/13 05:42:17;;;;;;;;;;;5.00;99.90;;;;;;5137226;27;19927;-59
2022/01/13 05:44:43;;;;;;;;;;;4.90;99.90;;;;;;5144837;27;20409;-56
2022/01/13 05:47:10;;;;;;;;;;;5.10;99.90;;;;;;5135409;27;20011;-60
2022/01/13 05:49:40;;;;;;;;;;;5.10;99.90;;;;;;5142557;27;20398;-55
2022/01/13 05:52:06;;;;;;;;;;;4.90;99.90;;;;;;5143168;27;20345;-57
2022/01/13 05:54:32;;;;;;;;;;;5.00;99.90;;;;;;5135010;27;19927;-59
2022/01/13 05:56:58;;;;;;;;;;;5.00;99.90;;;;;;5148552;27;19973;-58
2022/01/13 05:59:24;;;;;;;;;;;5.00;99.90;;;;;;5138078;27;20011;-57
2022/01/13 06:01:50;;;;;;;;;;;5.00;99.90;;;;;;5141185;27;19974;-61
2022/01/13 06:04:15;;;;;;;;;;;5.00;99.90;;;;;;5134105;27;19933;-55
2022/01/13 06:06:41;;;;;;;;;;;5.00;99.90;;;;;;5140603;27;20322;-56
2022/01/13 06:09:06;;;;;;;;;;;5.00;99.90;;;;;;5143679;27;20329;-57
2022/01/13 06:11:39;;;;;;;;;;;5.80;99.90;;;;;;5142586;27;19937;-57
2022/01/13 06:14:05;;;;;;;;;;;5.00;99.90;;;;;;5143264;27;19931;-56
2022/01/13 06:16:30;;;;;;;;;;;5.10;99.90;;;;;;5134891;27;19934;-56
2022/01/13 06:18:56;;;;;;;;;;;5.10;99.90;;;;;;5146858;27;19927;-60
2022/01/13 06:21:22;;;;;;;;;;;5.10;99.90;;;;;;5136971;27;19979;-56
2022/01/13 06:23:47;;;;;;;;;;;5.10;99.90;;;;;;5140926;27;20024;-59
2022/01/13 06:26:13;;;;;;;;;;;5.50;99.90;;;;;;5144120;27;20017;-57
2022/01/13 06:28:38;;;;;;;;;;;5.10;99.90;;;;;;5133238;27;19931;-56
2022/01/13 06:31:04;;;;;;;;;;;5.10;99.90;;;;;;5131007;27;19927;-57
2022/01/13 06:33:30;;;;;;;;;;;5.20;99.90;;;;;;5137624;27;19927;-55
2022/01/13 06:35:55;;;;;;;;;;;5.20;99.90;;;;;;5131231;27;19998;-57
2022/01/13 06:38:23;;;;;;;;;;;5.10;99.90;;;;;;5143958;27;19927;-58
2022/01/13 06:40:49;;;;;;;;;;;5.20;99.90;;;;;;5136786;27;19980;-55
2022/01/13 06:43:15;;;;;;;;;;;5.20;99.90;;;;;;5144958;27;19927;-67
2022/01/13 06:45:41;;;;;;;;;;;5.20;99.90;;;;;;5139360;27;20066;-56
2022/01/13 06:48:07;;;;;;;;;;;5.20;99.90;;;;;;5143651;27;19933;-67
2022/01/13 06:50:33;;;;;;;;;;;5.20;99.90;;;;;;5133652;27;19939;-62
2022/01/13 06:52:58;;;;;;;;;;;5.20;99.90;;;;;;5146761;27;19934;-62
2022/01/13 06:55:24;;;;;;;;;;;5.20;99.90;;;;;;5136464;27;19927;-57
2022/01/13 06:57:50;;;;;;;;;;;5.30;99.90;;;;;;5139928;27;19928;-56
2022/01/13 07:00:15;;;;;;;;;;;5.30;99.90;;;;;;5130001;27;19934;-63
2022/01/13 07:02:41;;;;;;;;;;;5.60;99.90;;;;;;5130150;27;19927;-64
2022/01/13 07:05:07;;;;;;;;;;;5.30;99.90;;;;;;5132937;27;19931;-59
2022/01/13 07:07:34;;;;;;;;;;;5.30;99.90;;;;;;5137818;27;20369;-56
2022/01/13 07:09:59;;;;;;;;;;;5.30;99.90;;;;;;5137212;27;19977;-56
2022/01/13 07:12:25;;;;;;;;;;;5.40;99.90;;;;;;5145072;27;20340;-57
2022/01/13 07:14:51;;;;;;;;;;;5.30;99.90;;;;;;5132525;27;19928;-58
2022/01/13 07:17:16;;;;;;;;;;;5.30;99.90;;;;;;5142805;27;19953;-60
2022/01/13 07:19:44;;;;;;;;;;;5.40;99.90;;;;;;5129215;27;20006;-60
2022/01/13 07:22:10;;;;;;;;;;;5.40;99.90;;;;;;5136238;27;19949;-56
2022/01/13 07:24:35;;;;;;;;;;;5.40;99.90;;;;;;5138587;27;20404;-62
2022/01/13 07:27:02;;;;;;;;;;;5.40;99.90;;;;;;5139008;27;19934;-56
2022/01/13 07:29:27;;;;;;;;;;;5.40;99.90;;;;;;5138003;27;19978;-59
2022/01/13 07:31:53;;;;;;;;;;;5.40;99.90;;;;;;5136339;27;19971;-61
2022/01/13 07:34:19;;;;;;;;;;;5.70;99.90;;;;;;5130956;27;19927;-61
2022/01/13 07:36:44;;;;;;;;;;;5.40;99.90;;;;;;5145709;27;19949;-56
2022/01/13 07:39:10;;;;;;;;;;;5.50;99.90;;;;;;5126964;27;19927;-56
2022/01/13 07:41:37;;;;;;;;;;;5.50;99.90;;;;;;5128311;27;19939;-56
2022/01/13 07:44:03;;;;;;;;;;;5.50;99.90;;;;;;5144028;27;19969;-59
2022/01/13 07:46:29;;;;;;;;;;;5.50;99.90;;;;;;5128876;27;19928;-63
2022/01/13 07:48:54;;;;;;;;;;;5.50;99.90;;;;;;5130883;27;20317;-59
2022/01/13 07:51:20;;;;;;;;;;;5.50;99.90;;;;;;5136496;27;19988;-56
2022/01/13 07:53:46;;;;;;;;;;;5.50;99.90;;;;;;5134760;27;20201;-56
2022/01/13 07:56:12;;;;;;;;;;;5.60;99.90;;;;;;5135706;27;19927;-59
2022/01/13 07:58:38;;;;;;;;;;;5.60;99.90;;;;;;5135569;27;19927;-58
2022/01/13 08:01:04;;;;;;;;;;;5.70;99.90;;;;;;5136810;27;19937;-56
2022/01/13 08:03:29;;;;;;;;;;;5.50;99.90;;;;;;5139619;27;20013;-57
2022/01/13 08:05:55;;;;;;;;;;;5.20;99.90;;;;;;5128527;27;20010;-56
2022/01/13 08:08:21;;;;;;;;;;;5.50;99.90;;;;;;5132319;27;19927;-58
2022/01/13 08:10:46;;;;;;;;;;;5.60;99.90;;;;;;5139946;27;19987;-61
2022/01/13 08:13:12;;;;;;;;;;;5.60;99.90;;;;;;5130206;27;20389;-61
2022/01/13 08:15:40;;;;;;;;;;;5.60;99.90;;;;;;5128817;27;20342;-62
2022/01/13 08:20:49;;;;;;;;;;;5.60;99.90;;;;;;5133321;27;19927;-56
2022/01/13 08:23:15;;;;;;;;;;;5.70;99.90;;;;;;5134178;27;19927;-56
2022/01/13 08:25:40;;;;;;;;;;;5.50;99.90;;;;;;5126283;27;20208;-59
2022/01/13 08:28:06;;;;;;;;;;;5.50;99.90;;;;;;5128664;27;19927;-60
2022/01/13 08:30:32;;;;;;;;;;;5.60;99.90;;;;;;5138616;27;19930;-59
2022/01/13 08:32:58;;;;;;;;;;;5.60;99.90;;;;;;5128829;27;20389;-61
2022/01/13 08:35:24;;;;;;;;;;;5.60;99.90;;;;;;5142969;27;19934;-64
2022/01/13 08:37:49;;;;;;;;;;;5.60;99.90;;;;;;5139427;27;20419;-58
2022/01/13 08:40:15;;;;;;;;;;;5.60;99.90;;;;;;5137207;27;19927;-59
2022/01/13 08:42:42;;;;;;;;;;;5.60;99.90;;;;;;5135638;27;19927;-59
2022/01/13 08:45:09;;;;;;;;;;;5.90;99.90;;;;;;5134490;27;19927;-60
2022/01/13 08:47:35;;;;;;;;;;;5.60;99.90;;;;;;5142624;27;19927;-62
2022/01/13 08:50:01;;;;;;;;;;;5.50;99.90;;;;;;5132980;27;19927;-64
2022/01/13 08:52:26;;;;;;;;;;;5.50;99.90;;;;;;5116520;27;20446;-63
2022/01/13 08:54:55;;;;;;;;;;;5.50;99.90;;;;;;5132854;27;19935;-63
2022/01/13 08:57:21;;;;;;;;;;;5.70;99.90;;;;;;5135726;27;19928;-59
2022/01/13 08:59:47;;;;;;;;;;;5.50;99.90;;;;;;5139003;27;20042;-62
2022/01/13 09:02:12;;;;;;;;;;;5.60;99.90;;;;;;5139818;27;20054;-59
2022/01/13 09:04:39;;;;;;;;;;;5.60;99.90;;;;;;5136955;27;20369;-58
2022/01/13 09:07:04;;;;;;;;;;;5.60;99.90;;;;;;5139469;27;19923;-60
2022/01/13 09:09:30;;;;;;;;;;;5.60;99.90;;;;;;5144892;27;19965;-61
2022/01/13 09:11:56;;;;;;;;;;;5.60;99.90;;;;;;5136424;27;19931;-67
2022/01/13 09:14:25;;;;;;;;;;;5.80;99.90;;;;;;5134671;27;19927;-57
2022/01/13 09:16:51;;;;;;;;;;;6.20;99.90;;;;;;5138315;27;19927;-58
2022/01/13 09:19:18;;;;;;;;;;;5.60;99.90;;;;;;5127731;27;19928;-60
2022/01/13 09:21:44;;;;;;;;;;;5.70;99.90;;;;;;5136681;27;20061;-57
2022/01/13 09:24:14;;;;;;;;;;;5.70;99.90;;;;;;5131380;27;20384;-57
2022/01/13 09:26:40;;;;;;;;;;;5.80;99.90;;;;;;5137077;27;19931;-59
2022/01/13 09:29:07;;;;;;;;;;;5.70;99.90;;;;;;5139391;27;19927;-56
2022/01/13 09:31:34;;;;;;;;;;;5.80;99.90;;;;;;5140931;27;19947;-57
2022/01/13 09:34:01;;;;;;;;;;;5.80;99.90;;;;;;5140182;27;20333;-56
2022/01/13 09:36:31;;;;;;;;;;;5.80;99.90;;;;;;5133127;27;19996;-56
2022/01/13 09:38:57;;;;;;;;;;;5.80;99.90;;;;;;5126762;27;19927;-56
2022/01/13 09:41:24;;;;;;;;;;;5.90;99.90;;;;;;5137402;27;20004;-56
2022/01/13 09:43:50;;;;;;;;;;;5.90;99.90;;;;;;5137175;27;20440;-56
2022/01/13 09:46:16;;;;;;;;;;;5.90;99.90;;;;;;5127225;27;19939;-60
2022/01/13 09:48:43;;;;;;;;;;;5.90;99.90;;;;;;5144167;27;19934;-57
2022/01/13 09:51:09;;;;;;;;;;;6.20;99.90;;;;;;5130104;27;19934;-56
2022/01/13 09:53:35;;;;;;;;;;;6.00;99.90;;;;;;5137070;27;20383;-59
2022/01/13 09:56:01;;;;;;;;;;;6.00;99.90;;;;;;5134889;27;20289;-59
2022/01/13 09:58:26;;;;;;;;;;;6.00;99.90;;;;;;5142981;27;19934;-63
2022/01/13 10:00:52;;;;;;;;;;;6.00;99.90;;;;;;5130594;27;19927;-64
2022/01/13 10:03:19;;;;;;;;;;;6.10;99.90;;;;;;5142578;27;20237;-63
2022/01/13 10:05:48;;;;;;;;;;;6.20;99.90;;;;;;5136955;27;19971;-66
2022/01/13 10:08:14;;;;;;;;;;;6.20;99.90;;;;;;5139622;27;19927;-65
2022/01/13 10:10:39;;;;;;;;;;;6.20;99.90;;;;;;5127001;27;20385;-65
2022/01/13 10:13:09;;;;;;;;;;;6.20;99.90;;;;;;5135449;27;20360;-57
2022/01/13 10:18:38;;;;;;;;;;;6.30;99.90;;;;;;5127010;27;19927;-56
2022/01/13 10:21:08;;;;;;;;;;;6.30;99.90;;;;;;5130817;27;19934;-57
2022/01/13 10:23:34;;;;;;;;;;;6.40;99.90;;;;;;5139293;27;19927;-56
2022/01/13 10:26:12;;;;;;;;;;;6.50;99.90;;;;;;5127298;27;19950;-56
2022/01/13 10:28:38;;;;;;;;;;;6.60;99.90;;;;;;5144872;27;19927;-56
2022/01/13 10:31:04;;;;;;;;;;;6.60;99.90;;;;;;5127442;27;20396;-56
2022/01/13 10:33:30;;;;;;;;;;;6.50;99.90;;;;;;5130375;27;19934;-57
2022/01/13 10:36:09;;;;;;;;;;;6.50;99.90;;;;;;5128042;27;20433;-56
2022/01/13 10:39:05;;;;;;;;;;;6.60;99.90;;;;;;5134774;27;20292;-56
2022/01/13 10:41:35;;;;;;;;;;;6.50;99.90;;;;;;5123339;27;19935;-56
2022/01/13 10:44:14;;;;;;;;;;;6.50;99.90;;;;;;5138388;27;20386;-57
2022/01/13 10:46:56;;;;;;;;;;;6.60;99.90;;;;;;5129615;27;20651;-56
2022/01/13 10:49:30;;;;;;;;;;;6.60;99.90;;;;;;5143247;27;19933;-59
2022/01/13 10:52:14;;;;;;;;;;;6.80;99.90;;;;;;5133550;27;19927;-56
2022/01/13 10:54:40;;;;;;;;;;;6.60;99.90;;;;;;5129923;27;19934;-56
2022/01/13 10:57:19;;;;;;;;;;;6.60;99.90;;;;;;5127755;27;19931;-60
2022/01/13 10:59:44;;;;;;;;;;;6.60;99.90;;;;;;5136205;27;19999;-56
2022/01/13 11:02:10;;;;;;;;;;;6.60;99.90;;;;;;5133016;27;20410;-58
2022/01/13 11:04:36;;;;;;;;;;;6.60;99.90;;;;;;5132944;27;19932;-56
2022/01/13 11:07:12;;;;;;;;;;;6.60;99.90;;;;;;5129499;27;19970;-59
2022/01/13 11:09:42;;;;;;;;;;;6.60;99.90;;;;;;5135243;27;19927;-59
2022/01/13 11:12:12;;;;;;;;;;;6.60;99.90;;;;;;5135149;27;20855;-56
2022/01/13 11:14:42;;;;;;;;;;;6.60;99.90;;;;;;5143534;27;19927;-56
2022/01/13 11:17:10;;;;;;;;;;;6.60;99.90;;;;;;5141356;27;19927;-57
2022/01/13 11:19:36;;;;;;;;;;;6.60;99.90;;;;;;5134435;27;20396;-57
2022/01/13 11:22:02;;;;;;;;;;;6.60;99.90;;;;;;5134037;27;19923;-57
2022/01/13 11:24:28;;;;;;;;;;;6.50;99.90;;;;;;5138845;27;19934;-55
2022/01/13 11:26:55;;;;;;;;;;;6.60;99.90;;;;;;5129000;27;19932;-56
2022/01/13 11:29:21;;;;;;;;;;;6.60;99.90;;;;;;5136370;27;20341;-56
2022/01/13 11:31:47;;;;;;;;;;;6.70;99.90;;;;;;5135979;27;19976;-56
2022/01/13 11:34:15;;;;;;;;;;;6.60;99.90;;;;;;5129382;27;20344;-57
2022/01/13 11:36:41;;;;;;;;;;;6.60;99.90;;;;;;5131258;27;19927;-56
2022/01/13 11:39:07;;;;;;;;;;;6.70;99.90;;;;;;5129032;27;19934;-56
2022/01/13 11:41:33;;;;;;;;;;;6.70;99.90;;;;;;5134415;27;20380;-56
2022/01/13 11:44:11;;;;;;;;;;;8.30;99.90;;;;;;5129337;27;19927;-56
2022/01/13 11:46:44;;;;;;;;;;;6.70;99.90;;;;;;5125052;27;20299;-56
2022/01/13 11:49:22;;;;;;;;;;;6.70;99.90;;;;;;5126002;27;19966;-56
2022/01/13 11:51:55;;;;;;;;;;;6.70;99.90;;;;;;5132550;27;19934;-58
2022/01/13 11:54:25;;;;;;;;;;;6.70;99.90;;;;;;5123289;27;20262;-57
2022/01/13 11:57:13;;;;;;;;;;;6.60;99.90;;;;;;5128466;27;20456;-58
2022/01/13 11:59:39;;;;;;;;;;;6.60;99.90;;;;;;5128110;27;20354;-58
2022/01/13 12:02:37;;;;;;;;;;;6.60;99.90;;;;;;5124294;27;19962;-57
2022/01/13 12:05:14;;;;;;;;;;;6.60;99.90;;;;;;5092530;27;20576;-59
2022/01/13 12:07:42;;;;;;;;;;;6.70;99.90;;;;;;5129643;27;19927;-64
2022/01/13 12:10:08;;;;;;;;;;;6.70;99.90;;;;;;5138666;27;20455;-65
2022/01/13 12:12:34;;;;;;;;;;;6.70;99.90;;;;;;5135766;27;19938;-57
2022/01/13 12:15:13;;;;;;;;;;;6.90;99.90;;;;;;5123836;27;19928;-59
2022/01/13 12:17:49;;;;;;;;;;;6.70;99.90;;;;;;5126350;27;19935;-64
2022/01/13 12:20:22;;;;;;;;;;;6.70;99.90;;;;;;5135748;27;20300;-60
2022/01/13 12:23:03;;;;;;;;;;;6.70;99.90;;;;;;5130443;27;20020;-58
2022/01/13 12:25:33;;;;;;;;;;;6.70;99.90;;;;;;5141308;27;19958;-57
2022/01/13 12:28:09;;;;;;;;;;;7.40;99.90;;;;;;5137085;27;19923;-56
2022/01/13 12:30:36;;;;;;;;;;;6.70;99.90;;;;;;5130518;27;19933;-57
2022/01/13 12:33:03;;;;;;;;;;;6.70;99.90;;;;;;5135946;27;20069;-56
2022/01/13 12:35:38;;;;;;;;;;;6.70;99.90;;;;;;5142868;27;19957;-56
2022/01/13 12:38:05;;;;;;;;;;;6.70;99.90;;;;;;5126987;27;19932;-58
2022/01/13 12:40:44;;;;;;;;;;;6.70;99.90;;;;;;5133420;27;20369;-56
2022/01/13 12:43:13;;;;;;;;;;;6.70;99.90;;;;;;5134177;27;19927;-58
2022/01/13 12:45:38;;;;;;;;;;;6.70;99.90;;;;;;5138746;27;19927;-58
2022/01/13 12:48:05;;;;;;;;;;;6.90;99.90;;;;;;5136471;27;19927;-56
2022/01/13 12:50:34;;;;;;;;;;;6.70;99.90;;;;;;5145381;27;20002;-58
2022/01/13 12:53:10;;;;;;;;;;;6.80;99.90;;;;;;5136416;27;19988;-57
2022/01/13 12:55:37;;;;;;;;;;;6.80;99.90;;;;;;5141988;27;19931;-59
2022/01/13 12:58:02;;;;;;;;;;;6.80;99.90;;;;;;5141143;27;19934;-61
2022/01/13 13:00:28;;;;;;;;;;;6.80;99.90;;;;;;5133328;27;19949;-58
2022/01/13 13:02:53;;;;;;;;;;;7.20;99.90;;;;;;5147273;27;19994;-57
2022/01/13 13:05:29;;;;;;;;;;;6.90;99.90;;;;;;5134529;27;19937;-61
2022/01/13 13:07:55;;;;;;;;;;;7.00;99.90;;;;;;5133916;27;19927;-60
2022/01/13 13:10:20;;;;;;;;;;;7.10;99.90;;;;;;5141574;27;19927;-58
2022/01/13 13:12:50;;;;;;;;;;;7.10;99.90;;;;;;5137029;27;19927;-58
2022/01/13 13:17:46;;;;;;;;;;;7.20;99.90;;;;;;5128140;27;19934;-60
2022/01/13 13:20:23;;;;;;;;;;;7.30;99.90;;;;;;5128292;27;20025;-59
2022/01/13 13:22:50;;;;;;;;;;;7.30;99.90;;;;;;5139648;27;20349;-60
2022/01/13 13:25:26;;;;;;;;;;;7.40;99.90;;;;;;5137510;27;20015;-60
2022/01/13 13:27:51;;;;;;;;;;;7.30;99.90;;;;;;5138346;27;20372;-61
2022/01/13 13:30:17;;;;;;;;;;;7.40;99.90;;;;;;5140257;27;19986;-59
2022/01/13 13:32:49;;;;;;;;;;;7.40;99.90;;;;;;5132405;27;20293;-60
2022/01/13 13:35:15;;;;;;;;;;;7.40;99.90;;;;;;5134069;27;19927;-60
2022/01/13 13:37:44;;;;;;;;;;;7.40;99.90;;;;;;5138225;27;19927;-66
2022/01/13 13:40:20;;;;;;;;;;;7.40;99.90;;;;;;5132787;27;20018;-65
2022/01/13 13:42:57;;;;;;;;;;;7.40;99.90;;;;;;5131922;27;19927;-60
2022/01/13 13:45:23;;;;;;;;;;;7.40;99.90;;;;;;5135430;27;20177;-63
2022/01/13 13:47:58;;;;;;;;;;;7.50;99.90;;;;;;5137973;27;19927;-58
2022/01/13 13:50:24;;;;;;;;;;;7.50;99.90;;;;;;5137885;27;20419;-57
2022/01/13 13:53:05;;;;;;;;;;;7.50;99.90;;;;;;5144938;27;19927;-56
2022/01/13 13:55:31;;;;;;;;;;;7.50;99.90;;;;;;5135888;27;20053;-56
2022/01/13 13:57:57;;;;;;;;;;;7.50;99.90;;;;;;5136356;27;19934;-60
2022/01/13 14:00:23;;;;;;;;;;;7.50;99.90;;;;;;5140700;27;19927;-63
2022/01/13 14:02:52;;;;;;;;;;;7.60;99.90;;;;;;5128526;27;19931;-57
2022/01/13 14:05:20;;;;;;;;;;;7.60;99.90;;;;;;5131609;27;20021;-63
2022/01/13 14:07:47;;;;;;;;;;;7.60;99.90;;;;;;5140755;27;20546;-58
2022/01/13 14:10:13;;;;;;;;;;;7.60;99.90;;;;;;5132689;27;19980;-54
2022/01/13 14:12:44;;;;;;;;;;;7.70;99.90;;;;;;5135080;27;19927;-59
2022/01/13 14:15:16;;;;;;;;;;;7.70;99.90;;;;;;5133487;27;20066;-61
2022/01/13 14:17:42;;;;;;;;;;;7.70;99.90;;;;;;5135576;27;20304;-56
2022/01/13 14:20:09;;;;;;;;;;;7.80;99.90;;;;;;5142879;27;20451;-57
2022/01/13 14:22:35;;;;;;;;;;;7.70;99.90;;;;;;5136945;27;19934;-58
2022/01/13 14:25:01;;;;;;;;;;;7.70;99.90;;;;;;5140490;27;19927;-58
2022/01/13 14:27:27;;;;;;;;;;;7.70;99.90;;;;;;5137489;27;19927;-64
2022/01/13 14:29:53;;;;;;;;;;;7.70;99.90;;;;;;5137963;27;20025;-56
2022/01/13 14:32:20;;;;;;;;;;;7.70;99.90;;;;;;5131109;27;19927;-62
2022/01/13 14:34:47;;;;;;;;;;;6.10;99.90;;;;;;5127943;27;19927;-61
2022/01/13 14:37:13;;;;;;;;;;;7.50;99.90;;;;;;5128020;27;19927;-58
2022/01/13 14:39:40;;;;;;;;;;;7.60;99.90;;;;;;5130752;27;19934;-61
2022/01/13 14:42:26;;;;;;;;;;;7.60;99.90;;;;;;5119726;27;19934;-60
2022/01/13 14:45:11;;;;;;;;;;;7.60;99.90;;;;;;5129902;27;20003;-59
2022/01/13 14:47:37;;;;;;;;;;;7.50;99.90;;;;;;5137351;27;19939;-62
2022/01/13 14:50:02;;;;;;;;;;;7.50;99.90;;;;;;5126496;27;20289;-60
2022/01/13 14:52:28;;;;;;;;;;;7.50;99.90;;;;;;5134712;27;19934;-58
2022/01/13 14:54:55;;;;;;;;;;;7.50;99.90;;;;;;5130873;27;20275;-56
2022/01/13 14:57:20;;;;;;;;;;;7.50;99.90;;;;;;5135263;27;19927;-63
2022/01/13 14:59:46;;;;;;;;;;;7.40;99.90;;;;;;5136598;27;19927;-58